sensor_id;sensor_type;location;lat;lon;timestamp;P1;durP1;ratioP1;P2;durP2;ratioP2
27015;SDS011;14557;0.000;0.000;2024-01-15T00:02:21;6.47;;;0.70;;
27015;SDS011;14557;0.000;0.000;2024-01-15T00:04:47;4.07;;;0.77;;
27015;SDS011;14557;0.000;0.000;2024-01-15T00:07:13;3.58;;;0.65;;
27015;SDS011;14557;0.000;0.000;2024-01-15T00:09:39;1.75;;;0.90;;
27015;SDS011;14557;0.000;0.000;2024-01-15T00:12:05;6.75;;;0.60;;
27015;SDS011;14557;0.000;0.000;2024-01-15T00:14:31;5.95;;;0.85;;
27015;SDS011;14557;0.000;0.000;2024-01-15T00:16:56;3.85;;;0.75;;
27015;SDS011;14557;0.000;0.000;2024-01-15T00:19:22;5.30;;;0.75;;
27015;SDS011;14557;0.000;0.000;2024-01-15T00:21:49;3.20;;;0.57;;
27015;SDS011;14557;0.000;0.000;2024-01-15T00:24:15;4.60;;;0.90;;
27015;SDS011;14557;0.000;0.000;2024-01-15T00:26:41;5.20;;;0.65;;
27015;SDS011;14557;0.000;0.000;2024-01-15T00:29:07;3.65;;;0.95;;
27015;SDS011;14557;0.000;0.000;2024-01-15T00:31:33;3.70;;;0.80;;
27015;SDS011;14557;0.000;0.000;2024-01-15T00:33:59;3.20;;;0.68;;
27015;SDS011;14557;0.000;0.000;2024-01-15T00:36:25;2.47;;;0.85;;
27015;SDS011;14557;0.000;0.000;2024-01-15T00:38:51;3.58;;;0.65;;
27015;SDS011;14557;0.000;0.000;2024-01-15T00:41:17;3.10;;;0.70;;
27015;SDS011;14557;0.000;0.000;2024-01-15T00:43:44;3.10;;;0.70;;
27015;SDS011;14557;0.000;0.000;2024-01-15T00:46:10;4.47;;;1.08;;
27015;SDS011;14557;0.000;0.000;2024-01-15T00:48:36;5.90;;;1.10;;
27015;SDS011;14557;0.000;0.000;2024-01-15T00:51:03;7.93;;;1.33;;
27015;SDS011;14557;0.000;0.000;2024-01-15T00:53:29;4.53;;;1.13;;
27015;SDS011;14557;0.000;0.000;2024-01-15T00:55:56;6.50;;;0.90;;
27015;SDS011;14557;0.000;0.000;2024-01-15T00:58:21;4.70;;;1.48;;
27015;SDS011;14557;0.000;0.000;2024-01-15T01:00:47;4.00;;;1.10;;
27015;SDS011;14557;0.000;0.000;2024-01-15T01:03:13;3.85;;;0.90;;
27015;SDS011;14557;0.000;0.000;2024-01-15T01:05:39;4.30;;;1.13;;
27015;SDS011;14557;0.000;0.000;2024-01-15T01:08:05;6.28;;;0.98;;
27015;SDS011;14557;0.000;0.000;2024-01-15T01:10:31;4.25;;;0.80;;
27015;SDS011;14557;0.000;0.000;2024-01-15T01:12:56;4.93;;;0.80;;
27015;SDS011;14557;0.000;0.000;2024-01-15T01:15:22;3.75;;;0.75;;
27015;SDS011;14557;0.000;0.000;2024-01-15T01:17:49;6.25;;;1.17;;
27015;SDS011;14557;0.000;0.000;2024-01-15T01:20:15;3.20;;;0.98;;
27015;SDS011;14557;0.000;0.000;2024-01-15T01:22:41;5.68;;;1.08;;
27015;SDS011;14557;0.000;0.000;2024-01-15T01:25:07;5.28;;;0.88;;
27015;SDS011;14557;0.000;0.000;2024-01-15T01:27:34;5.22;;;1.10;;
27015;SDS011;14557;0.000;0.000;2024-01-15T01:30:00;2.83;;;0.60;;
27015;SDS011;14557;0.000;0.000;2024-01-15T01:32:26;7.75;;;1.20;;
27015;SDS011;14557;0.000;0.000;2024-01-15T01:34:52;4.57;;;0.70;;
27015;SDS011;14557;0.000;0.000;2024-01-15T01:37:18;2.28;;;0.60;;
27015;SDS011;14557;0.000;0.000;2024-01-15T01:39:44;3.65;;;1.00;;
27015;SDS011;14557;0.000;0.000;2024-01-15T01:42:10;2.42;;;0.70;;
27015;SDS011;14557;0.000;0.000;2024-01-15T01:44:36;3.83;;;1.27;;
27015;SDS011;14557;0.000;0.000;2024-01-15T01:47:02;5.05;;;0.63;;
27015;SDS011;14557;0.000;0.000;2024-01-15T01:49:29;3.50;;;0.37;;
27015;SDS011;14557;0.000;0.000;2024-01-15T01:51:58;4.88;;;1.00;;
27015;SDS011;14557;0.000;0.000;2024-01-15T01:54:26;3.45;;;0.88;;
27015;SDS011;14557;0.000;0.000;2024-01-15T01:56:55;2.80;;;0.50;;
27015;SDS011;14557;0.000;0.000;2024-01-15T01:59:22;2.53;;;0.60;;
27015;SDS011;14557;0.000;0.000;2024-01-15T02:01:51;1.98;;;0.70;;
27015;SDS011;14557;0.000;0.000;2024-01-15T02:04:17;4.35;;;1.02;;
27015;SDS011;14557;0.000;0.000;2024-01-15T02:06:44;1.85;;;0.57;;
27015;SDS011;14557;0.000;0.000;2024-01-15T02:09:10;2.38;;;0.70;;
27015;SDS011;14557;0.000;0.000;2024-01-15T02:11:40;3.70;;;0.75;;
27015;SDS011;14557;0.000;0.000;2024-01-15T02:14:06;3.78;;;0.95;;
27015;SDS011;14557;0.000;0.000;2024-01-15T02:16:32;2.55;;;0.65;;
27015;SDS011;14557;0.000;0.000;2024-01-15T02:18:58;1.98;;;0.55;;
27015;SDS011;14557;0.000;0.000;2024-01-15T02:21:24;2.88;;;0.47;;
27015;SDS011;14557;0.000;0.000;2024-01-15T02:26:17;3.65;;;0.50;;
27015;SDS011;14557;0.000;0.000;2024-01-15T02:28:43;2.75;;;0.73;;
27015;SDS011;14557;0.000;0.000;2024-01-15T02:31:09;3.58;;;0.50;;
27015;SDS011;14557;0.000;0.000;2024-01-15T02:33:35;1.52;;;0.50;;
27015;SDS011;14557;0.000;0.000;2024-01-15T02:36:01;2.20;;;0.50;;
27015;SDS011;14557;0.000;0.000;2024-01-15T02:38:27;1.35;;;0.40;;
27015;SDS011;14557;0.000;0.000;2024-01-15T02:40:53;3.25;;;0.52;;
27015;SDS011;14557;0.000;0.000;2024-01-15T02:43:18;2.15;;;0.65;;
27015;SDS011;14557;0.000;0.000;2024-01-15T02:45:45;2.90;;;0.63;;
27015;SDS011;14557;0.000;0.000;2024-01-15T02:48:11;2.25;;;0.65;;
27015;SDS011;14557;0.000;0.000;2024-01-15T02:50:37;3.17;;;0.70;;
27015;SDS011;14557;0.000;0.000;2024-01-15T02:53:03;2.58;;;0.57;;
27015;SDS011;14557;0.000;0.000;2024-01-15T02:55:29;3.95;;;0.60;;
27015;SDS011;14557;0.000;0.000;2024-01-15T02:57:55;2.47;;;0.60;;
27015;SDS011;14557;0.000;0.000;2024-01-15T03:00:21;2.08;;;0.60;;
27015;SDS011;14557;0.000;0.000;2024-01-15T03:02:47;1.58;;;0.50;;
27015;SDS011;14557;0.000;0.000;2024-01-15T03:05:15;3.17;;;0.70;;
27015;SDS011;14557;0.000;0.000;2024-01-15T03:07:41;1.73;;;0.50;;
27015;SDS011;14557;0.000;0.000;2024-01-15T03:10:06;2.08;;;0.70;;
27015;SDS011;14557;0.000;0.000;2024-01-15T03:12:32;1.95;;;0.40;;
27015;SDS011;14557;0.000;0.000;2024-01-15T03:14:58;1.52;;;0.40;;
27015;SDS011;14557;0.000;0.000;2024-01-15T03:17:24;1.98;;;0.47;;
27015;SDS011;14557;0.000;0.000;2024-01-15T03:19:50;1.52;;;0.50;;
27015;SDS011;14557;0.000;0.000;2024-01-15T03:22:16;2.17;;;0.70;;
27015;SDS011;14557;0.000;0.000;2024-01-15T03:24:43;1.63;;;0.50;;
27015;SDS011;14557;0.000;0.000;2024-01-15T03:27:09;2.20;;;0.52;;
27015;SDS011;14557;0.000;0.000;2024-01-15T03:29:34;1.15;;;0.30;;
27015;SDS011;14557;0.000;0.000;2024-01-15T03:32:00;2.13;;;0.60;;
27015;SDS011;14557;0.000;0.000;2024-01-15T03:34:26;2.97;;;0.45;;
27015;SDS011;14557;0.000;0.000;2024-01-15T03:36:51;2.60;;;0.52;;
27015;SDS011;14557;0.000;0.000;2024-01-15T03:39:17;1.50;;;0.40;;
27015;SDS011;14557;0.000;0.000;2024-01-15T03:41:43;2.95;;;0.70;;
27015;SDS011;14557;0.000;0.000;2024-01-15T03:44:09;1.33;;;0.35;;
27015;SDS011;14557;0.000;0.000;2024-01-15T03:46:34;1.98;;;0.50;;
27015;SDS011;14557;0.000;0.000;2024-01-15T03:49:00;1.60;;;0.40;;
27015;SDS011;14557;0.000;0.000;2024-01-15T03:51:26;2.00;;;0.40;;
27015;SDS011;14557;0.000;0.000;2024-01-15T03:53:51;2.22;;;0.50;;
27015;SDS011;14557;0.000;0.000;2024-01-15T03:56:17;1.67;;;0.50;;
27015;SDS011;14557;0.000;0.000;2024-01-15T03:58:43;0.80;;;0.28;;
27015;SDS011;14557;0.000;0.000;2024-01-15T04:01:09;1.65;;;0.47;;
27015;SDS011;14557;0.000;0.000;2024-01-15T04:03:35;2.15;;;0.60;;
27015;SDS011;14557;0.000;0.000;2024-01-15T04:06:01;1.52;;;0.40;;
27015;SDS011;14557;0.000;0.000;2024-01-15T04:08:27;0.90;;;0.30;;
27015;SDS011;14557;0.000;0.000;2024-01-15T04:10:52;1.40;;;0.38;;
27015;SDS011;14557;0.000;0.000;2024-01-15T04:13:18;1.95;;;0.70;;
27015;SDS011;14557;0.000;0.000;2024-01-15T04:15:44;2.75;;;0.65;;
27015;SDS011;14557;0.000;0.000;2024-01-15T04:18:09;1.52;;;0.50;;
27015;SDS011;14557;0.000;0.000;2024-01-15T04:20:35;1.80;;;0.32;;
27015;SDS011;14557;0.000;0.000;2024-01-15T04:23:01;2.33;;;0.52;;
27015;SDS011;14557;0.000;0.000;2024-01-15T04:25:27;1.30;;;0.40;;
27015;SDS011;14557;0.000;0.000;2024-01-15T04:27:52;1.30;;;0.47;;
27015;SDS011;14557;0.000;0.000;2024-01-15T04:30:18;1.35;;;0.28;;
27015;SDS011;14557;0.000;0.000;2024-01-15T04:32:44;1.80;;;0.50;;
27015;SDS011;14557;0.000;0.000;2024-01-15T04:35:10;1.15;;;0.30;;
27015;SDS011;14557;0.000;0.000;2024-01-15T04:37:36;1.40;;;0.52;;
27015;SDS011;14557;0.000;0.000;2024-01-15T04:40:02;1.10;;;0.45;;
27015;SDS011;14557;0.000;0.000;2024-01-15T04:42:29;1.73;;;0.60;;
27015;SDS011;14557;0.000;0.000;2024-01-15T04:44:54;1.60;;;0.50;;
27015;SDS011;14557;0.000;0.000;2024-01-15T04:47:20;1.80;;;0.68;;
27015;SDS011;14557;0.000;0.000;2024-01-15T04:49:46;1.50;;;0.40;;
27015;SDS011;14557;0.000;0.000;2024-01-15T04:52:13;1.42;;;0.38;;
27015;SDS011;14557;0.000;0.000;2024-01-15T04:54:38;1.80;;;0.55;;
27015;SDS011;14557;0.000;0.000;2024-01-15T04:57:04;1.27;;;0.32;;
27015;SDS011;14557;0.000;0.000;2024-01-15T04:59:30;1.50;;;0.50;;
27015;SDS011;14557;0.000;0.000;2024-01-15T05:01:56;2.08;;;0.50;;
27015;SDS011;14557;0.000;0.000;2024-01-15T05:04:22;1.77;;;0.63;;
27015;SDS011;14557;0.000;0.000;2024-01-15T05:06:49;1.05;;;0.25;;
27015;SDS011;14557;0.000;0.000;2024-01-15T05:09:15;1.70;;;0.50;;
27015;SDS011;14557;0.000;0.000;2024-01-15T05:11:42;1.40;;;0.45;;
27015;SDS011;14557;0.000;0.000;2024-01-15T05:14:08;2.15;;;0.52;;
27015;SDS011;14557;0.000;0.000;2024-01-15T05:16:34;1.63;;;0.50;;
27015;SDS011;14557;0.000;0.000;2024-01-15T05:19:00;1.65;;;0.40;;
27015;SDS011;14557;0.000;0.000;2024-01-15T05:21:26;1.70;;;0.30;;
27015;SDS011;14557;0.000;0.000;2024-01-15T05:23:51;1.60;;;0.25;;
27015;SDS011;14557;0.000;0.000;2024-01-15T05:26:17;2.67;;;0.77;;
27015;SDS011;14557;0.000;0.000;2024-01-15T05:28:43;1.33;;;0.32;;
27015;SDS011;14557;0.000;0.000;2024-01-15T05:31:09;1.05;;;0.35;;
27015;SDS011;14557;0.000;0.000;2024-01-15T05:33:35;1.08;;;0.43;;
27015;SDS011;14557;0.000;0.000;2024-01-15T05:36:02;2.17;;;0.55;;
27015;SDS011;14557;0.000;0.000;2024-01-15T05:38:28;1.65;;;0.40;;
27015;SDS011;14557;0.000;0.000;2024-01-15T05:40:53;2.13;;;0.43;;
27015;SDS011;14557;0.000;0.000;2024-01-15T05:43:19;1.35;;;0.50;;
27015;SDS011;14557;0.000;0.000;2024-01-15T05:45:45;1.17;;;0.45;;
27015;SDS011;14557;0.000;0.000;2024-01-15T05:48:11;1.48;;;0.50;;
27015;SDS011;14557;0.000;0.000;2024-01-15T05:50:37;1.27;;;0.30;;
27015;SDS011;14557;0.000;0.000;2024-01-15T05:53:03;0.90;;;0.30;;
27015;SDS011;14557;0.000;0.000;2024-01-15T05:55:29;0.77;;;0.30;;
27015;SDS011;14557;0.000;0.000;2024-01-15T05:57:55;1.92;;;0.50;;
27015;SDS011;14557;0.000;0.000;2024-01-15T06:00:21;1.00;;;0.32;;
27015;SDS011;14557;0.000;0.000;2024-01-15T06:02:47;1.02;;;0.30;;
27015;SDS011;14557;0.000;0.000;2024-01-15T06:05:12;0.85;;;0.35;;
27015;SDS011;14557;0.000;0.000;2024-01-15T06:07:38;1.17;;;0.30;;
27015;SDS011;14557;0.000;0.000;2024-01-15T06:10:04;1.65;;;0.60;;
27015;SDS011;14557;0.000;0.000;2024-01-15T06:12:30;0.93;;;0.40;;
27015;SDS011;14557;0.000;0.000;2024-01-15T06:14:57;1.30;;;0.40;;
27015;SDS011;14557;0.000;0.000;2024-01-15T06:17:23;1.38;;;0.30;;
27015;SDS011;14557;0.000;0.000;2024-01-15T06:19:49;1.27;;;0.40;;
27015;SDS011;14557;0.000;0.000;2024-01-15T06:22:14;0.90;;;0.30;;
27015;SDS011;14557;0.000;0.000;2024-01-15T06:24:41;1.42;;;0.40;;
27015;SDS011;14557;0.000;0.000;2024-01-15T06:27:06;1.55;;;0.38;;
27015;SDS011;14557;0.000;0.000;2024-01-15T06:29:32;1.60;;;0.50;;
27015;SDS011;14557;0.000;0.000;2024-01-15T06:31:58;1.60;;;0.35;;
27015;SDS011;14557;0.000;0.000;2024-01-15T06:34:24;1.35;;;0.30;;
27015;SDS011;14557;0.000;0.000;2024-01-15T06:36:49;0.70;;;0.20;;
27015;SDS011;14557;0.000;0.000;2024-01-15T06:39:15;1.35;;;0.28;;
27015;SDS011;14557;0.000;0.000;2024-01-15T06:41:41;0.77;;;0.25;;
27015;SDS011;14557;0.000;0.000;2024-01-15T06:44:11;0.82;;;0.30;;
27015;SDS011;14557;0.000;0.000;2024-01-15T06:46:44;1.35;;;0.50;;
27015;SDS011;14557;0.000;0.000;2024-01-15T06:49:10;1.30;;;0.40;;
27015;SDS011;14557;0.000;0.000;2024-01-15T06:51:36;1.05;;;0.52;;
27015;SDS011;14557;0.000;0.000;2024-01-15T06:54:02;1.30;;;0.50;;
27015;SDS011;14557;0.000;0.000;2024-01-15T06:56:28;1.08;;;0.35;;
27015;SDS011;14557;0.000;0.000;2024-01-15T06:58:54;2.15;;;0.50;;
27015;SDS011;14557;0.000;0.000;2024-01-15T07:01:20;0.98;;;0.30;;
27015;SDS011;14557;0.000;0.000;2024-01-15T07:03:46;1.30;;;0.40;;
27015;SDS011;14557;0.000;0.000;2024-01-15T07:06:12;1.52;;;0.38;;
27015;SDS011;14557;0.000;0.000;2024-01-15T07:08:38;1.92;;;0.57;;
27015;SDS011;14557;0.000;0.000;2024-01-15T07:11:04;1.63;;;0.40;;
27015;SDS011;14557;0.000;0.000;2024-01-15T07:13:30;0.90;;;0.20;;
27015;SDS011;14557;0.000;0.000;2024-01-15T07:15:56;1.02;;;0.43;;
27015;SDS011;14557;0.000;0.000;2024-01-15T07:18:22;1.15;;;0.30;;
27015;SDS011;14557;0.000;0.000;2024-01-15T07:20:48;1.42;;;0.40;;
27015;SDS011;14557;0.000;0.000;2024-01-15T07:23:14;1.05;;;0.30;;
27015;SDS011;14557;0.000;0.000;2024-01-15T07:25:40;1.52;;;0.50;;
27015;SDS011;14557;0.000;0.000;2024-01-15T07:28:06;1.15;;;0.32;;
27015;SDS011;14557;0.000;0.000;2024-01-15T07:30:32;1.75;;;0.52;;
27015;SDS011;14557;0.000;0.000;2024-01-15T07:32:57;1.60;;;0.50;;
27015;SDS011;14557;0.000;0.000;2024-01-15T07:35:23;1.15;;;0.38;;
27015;SDS011;14557;0.000;0.000;2024-01-15T07:37:49;1.20;;;0.40;;
27015;SDS011;14557;0.000;0.000;2024-01-15T07:40:15;0.85;;;0.20;;
27015;SDS011;14557;0.000;0.000;2024-01-15T07:42:41;0.85;;;0.40;;
27015;SDS011;14557;0.000;0.000;2024-01-15T07:45:09;1.25;;;0.30;;
27015;SDS011;14557;0.000;0.000;2024-01-15T07:47:35;1.27;;;0.40;;
27015;SDS011;14557;0.000;0.000;2024-01-15T07:50:01;0.68;;;0.25;;
27015;SDS011;14557;0.000;0.000;2024-01-15T07:52:27;1.95;;;0.63;;
27015;SDS011;14557;0.000;0.000;2024-01-15T07:54:52;1.73;;;0.32;;
27015;SDS011;14557;0.000;0.000;2024-01-15T07:57:18;0.70;;;0.22;;
27015;SDS011;14557;0.000;0.000;2024-01-15T07:59:44;0.52;;;0.30;;
27015;SDS011;14557;0.000;0.000;2024-01-15T08:02:10;0.90;;;0.30;;
27015;SDS011;14557;0.000;0.000;2024-01-15T08:04:39;0.55;;;0.30;;
27015;SDS011;14557;0.000;0.000;2024-01-15T08:07:05;1.08;;;0.22;;
27015;SDS011;14557;0.000;0.000;2024-01-15T08:09:32;1.42;;;0.52;;
27015;SDS011;14557;0.000;0.000;2024-01-15T08:11:58;1.20;;;0.30;;
27015;SDS011;14557;0.000;0.000;2024-01-15T08:14:23;1.10;;;0.30;;
27015;SDS011;14557;0.000;0.000;2024-01-15T08:16:49;2.10;;;0.45;;
27015;SDS011;14557;0.000;0.000;2024-01-15T08:19:16;8.07;;;0.55;;
27015;SDS011;14557;0.000;0.000;2024-01-15T08:21:41;2.55;;;0.52;;
27015;SDS011;14557;0.000;0.000;2024-01-15T08:24:07;10.20;;;1.55;;
27015;SDS011;14557;0.000;0.000;2024-01-15T08:26:33;4.05;;;0.70;;
27015;SDS011;14557;0.000;0.000;2024-01-15T08:28:59;2.13;;;0.50;;
27015;SDS011;14557;0.000;0.000;2024-01-15T08:31:25;3.67;;;0.65;;
27015;SDS011;14557;0.000;0.000;2024-01-15T08:33:51;7.35;;;0.98;;
27015;SDS011;14557;0.000;0.000;2024-01-15T08:36:17;3.15;;;0.50;;
27015;SDS011;14557;0.000;0.000;2024-01-15T08:38:43;4.57;;;0.65;;
27015;SDS011;14557;0.000;0.000;2024-01-15T08:41:09;4.60;;;0.60;;
27015;SDS011;14557;0.000;0.000;2024-01-15T08:43:35;3.53;;;0.55;;
27015;SDS011;14557;0.000;0.000;2024-01-15T08:46:02;2.08;;;0.40;;
27015;SDS011;14557;0.000;0.000;2024-01-15T08:48:28;6.82;;;1.02;;
27015;SDS011;14557;0.000;0.000;2024-01-15T08:50:54;3.05;;;0.80;;
27015;SDS011;14557;0.000;0.000;2024-01-15T08:53:20;1.67;;;0.50;;
27015;SDS011;14557;0.000;0.000;2024-01-15T08:55:46;1.35;;;0.50;;
27015;SDS011;14557;0.000;0.000;2024-01-15T08:58:12;1.48;;;0.40;;
27015;SDS011;14557;0.000;0.000;2024-01-15T09:00:39;1.88;;;0.30;;
27015;SDS011;14557;0.000;0.000;2024-01-15T09:03:05;2.08;;;0.60;;
27015;SDS011;14557;0.000;0.000;2024-01-15T09:05:31;5.30;;;1.60;;
27015;SDS011;14557;0.000;0.000;2024-01-15T09:07:57;4.82;;;1.20;;
27015;SDS011;14557;0.000;0.000;2024-01-15T09:10:22;2.85;;;0.50;;
27015;SDS011;14557;0.000;0.000;2024-01-15T09:12:49;1.58;;;0.60;;
27015;SDS011;14557;0.000;0.000;2024-01-15T09:15:15;3.15;;;0.52;;
27015;SDS011;14557;0.000;0.000;2024-01-15T09:17:41;2.53;;;0.82;;
27015;SDS011;14557;0.000;0.000;2024-01-15T09:20:08;3.13;;;0.80;;
27015;SDS011;14557;0.000;0.000;2024-01-15T09:22:34;3.08;;;0.80;;
27015;SDS011;14557;0.000;0.000;2024-01-15T09:25:02;3.20;;;0.63;;
27015;SDS011;14557;0.000;0.000;2024-01-15T09:27:29;3.88;;;1.10;;
27015;SDS011;14557;0.000;0.000;2024-01-15T09:29:55;2.05;;;0.65;;
27015;SDS011;14557;0.000;0.000;2024-01-15T09:32:20;1.75;;;0.75;;
27015;SDS011;14557;0.000;0.000;2024-01-15T09:34:46;1.88;;;0.52;;
27015;SDS011;14557;0.000;0.000;2024-01-15T09:37:13;3.47;;;1.30;;
27015;SDS011;14557;0.000;0.000;2024-01-15T09:39:39;0.75;;;0.32;;
27015;SDS011;14557;0.000;0.000;2024-01-15T09:42:05;2.33;;;0.70;;
27015;SDS011;14557;0.000;0.000;2024-01-15T09:44:32;1.88;;;0.80;;
27015;SDS011;14557;0.000;0.000;2024-01-15T09:46:58;1.45;;;0.57;;
27015;SDS011;14557;0.000;0.000;2024-01-15T09:49:24;2.00;;;0.30;;
27015;SDS011;14557;0.000;0.000;2024-01-15T09:51:50;1.98;;;0.40;;
27015;SDS011;14557;0.000;0.000;2024-01-15T09:54:16;4.45;;;0.50;;
27015;SDS011;14557;0.000;0.000;2024-01-15T09:56:51;1.98;;;0.40;;
27015;SDS011;14557;0.000;0.000;2024-01-15T09:59:18;2.30;;;0.47;;
27015;SDS011;14557;0.000;0.000;2024-01-15T10:01:44;1.17;;;0.33;;
27015;SDS011;14557;0.000;0.000;2024-01-15T10:04:10;1.90;;;0.60;;
27015;SDS011;14557;0.000;0.000;2024-01-15T10:06:38;1.52;;;0.35;;
27015;SDS011;14557;0.000;0.000;2024-01-15T10:09:04;1.00;;;0.32;;
27015;SDS011;14557;0.000;0.000;2024-01-15T10:11:32;1.10;;;0.40;;
27015;SDS011;14557;0.000;0.000;2024-01-15T10:13:58;1.60;;;0.40;;
27015;SDS011;14557;0.000;0.000;2024-01-15T10:16:25;4.72;;;0.60;;
27015;SDS011;14557;0.000;0.000;2024-01-15T10:18:51;1.57;;;0.50;;
27015;SDS011;14557;0.000;0.000;2024-01-15T10:21:17;1.98;;;0.50;;
27015;SDS011;14557;0.000;0.000;2024-01-15T10:23:43;2.35;;;0.50;;
27015;SDS011;14557;0.000;0.000;2024-01-15T10:26:09;1.63;;;0.40;;
27015;SDS011;14557;0.000;0.000;2024-01-15T10:31:02;2.15;;;0.50;;
27015;SDS011;14557;0.000;0.000;2024-01-15T10:33:29;2.57;;;0.70;;
27015;SDS011;14557;0.000;0.000;2024-01-15T10:35:58;1.45;;;0.30;;
27015;SDS011;14557;0.000;0.000;2024-01-15T10:38:25;2.15;;;0.50;;
27015;SDS011;14557;0.000;0.000;2024-01-15T10:40:52;1.35;;;0.30;;
27015;SDS011;14557;0.000;0.000;2024-01-15T10:43:19;2.60;;;0.85;;
27015;SDS011;14557;0.000;0.000;2024-01-15T10:45:45;2.17;;;0.50;;
27015;SDS011;14557;0.000;0.000;2024-01-15T10:48:12;1.98;;;0.50;;
27015;SDS011;14557;0.000;0.000;2024-01-15T10:50:38;2.25;;;0.50;;
27015;SDS011;14557;0.000;0.000;2024-01-15T10:53:04;3.50;;;0.40;;
27015;SDS011;14557;0.000;0.000;2024-01-15T10:55:31;2.13;;;0.38;;
27015;SDS011;14557;0.000;0.000;2024-01-15T10:57:58;1.45;;;0.43;;
27015;SDS011;14557;0.000;0.000;2024-01-15T11:00:25;1.57;;;0.40;;
27015;SDS011;14557;0.000;0.000;2024-01-15T11:02:51;1.50;;;0.55;;
27015;SDS011;14557;0.000;0.000;2024-01-15T11:05:20;1.65;;;0.68;;
27015;SDS011;14557;0.000;0.000;2024-01-15T11:07:50;1.45;;;0.50;;
27015;SDS011;14557;0.000;0.000;2024-01-15T11:10:39;4.38;;;0.30;;
27015;SDS011;14557;0.000;0.000;2024-01-15T11:13:15;3.13;;;0.38;;
27015;SDS011;14557;0.000;0.000;2024-01-15T11:18:25;2.20;;;0.32;;
27015;SDS011;14557;0.000;0.000;2024-01-15T11:29:10;1.70;;;0.45;;
27015;SDS011;14557;0.000;0.000;2024-01-15T11:31:58;3.22;;;0.52;;
27015;SDS011;14557;0.000;0.000;2024-01-15T11:37:20;3.35;;;0.70;;
27015;SDS011;14557;0.000;0.000;2024-01-15T11:39:50;0.65;;;0.30;;
27015;SDS011;14557;0.000;0.000;2024-01-15T11:42:17;1.40;;;0.60;;
27015;SDS011;14557;0.000;0.000;2024-01-15T11:44:43;2.17;;;0.60;;
27015;SDS011;14557;0.000;0.000;2024-01-15T11:47:10;5.72;;;0.80;;
27015;SDS011;14557;0.000;0.000;2024-01-15T11:52:34;2.40;;;0.90;;
27015;SDS011;14557;0.000;0.000;2024-01-15T11:55:11;1.13;;;0.70;;
27015;SDS011;14557;0.000;0.000;2024-01-15T11:57:41;3.83;;;1.67;;
27015;SDS011;14557;0.000;0.000;2024-01-15T12:00:09;2.40;;;1.30;;
27015;SDS011;14557;0.000;0.000;2024-01-15T12:05:06;2.75;;;1.13;;
27015;SDS011;14557;0.000;0.000;2024-01-15T12:07:33;2.85;;;1.38;;
27015;SDS011;14557;0.000;0.000;2024-01-15T12:10:00;2.65;;;1.40;;
27015;SDS011;14557;0.000;0.000;2024-01-15T12:12:36;3.53;;;1.60;;
27015;SDS011;14557;0.000;0.000;2024-01-15T12:15:12;3.58;;;1.25;;
27015;SDS011;14557;0.000;0.000;2024-01-15T12:17:38;2.47;;;1.45;;
27015;SDS011;14557;0.000;0.000;2024-01-15T12:20:04;2.88;;;1.52;;
27015;SDS011;14557;0.000;0.000;2024-01-15T12:22:31;2.10;;;1.48;;
27015;SDS011;14557;0.000;0.000;2024-01-15T12:24:57;3.92;;;1.98;;
27015;SDS011;14557;0.000;0.000;2024-01-15T12:27:23;4.00;;;1.80;;
27015;SDS011;14557;0.000;0.000;2024-01-15T12:29:49;5.15;;;2.72;;
27015;SDS011;14557;0.000;0.000;2024-01-15T12:32:15;8.32;;;3.28;;
27015;SDS011;14557;0.000;0.000;2024-01-15T12:34:40;10.40;;;7.63;;
27015;SDS011;14557;0.000;0.000;2024-01-15T12:37:09;26.23;;;23.65;;
27015;SDS011;14557;0.000;0.000;2024-01-15T12:39:37;12.25;;;9.90;;
27015;SDS011;14557;0.000;0.000;2024-01-15T12:42:03;9.18;;;7.00;;
27015;SDS011;14557;0.000;0.000;2024-01-15T12:44:30;7.63;;;5.32;;
27015;SDS011;14557;0.000;0.000;2024-01-15T12:46:56;7.28;;;5.53;;
27015;SDS011;14557;0.000;0.000;2024-01-15T12:49:23;6.18;;;4.88;;
27015;SDS011;14557;0.000;0.000;2024-01-15T12:51:52;7.47;;;4.25;;
27015;SDS011;14557;0.000;0.000;2024-01-15T12:54:19;4.80;;;3.70;;
27015;SDS011;14557;0.000;0.000;2024-01-15T12:56:45;6.13;;;3.85;;
27015;SDS011;14557;0.000;0.000;2024-01-15T12:59:11;5.05;;;3.65;;
27015;SDS011;14557;0.000;0.000;2024-01-15T13:01:37;4.75;;;3.42;;
27015;SDS011;14557;0.000;0.000;2024-01-15T13:04:04;5.78;;;3.10;;
27015;SDS011;14557;0.000;0.000;2024-01-15T13:06:33;5.93;;;3.33;;
27015;SDS011;14557;0.000;0.000;2024-01-15T13:09:00;4.13;;;2.65;;
27015;SDS011;14557;0.000;0.000;2024-01-15T13:11:26;3.63;;;2.80;;
27015;SDS011;14557;0.000;0.000;2024-01-15T13:13:52;4.57;;;2.28;;
27015;SDS011;14557;0.000;0.000;2024-01-15T13:16:18;3.65;;;2.53;;
27015;SDS011;14557;0.000;0.000;2024-01-15T13:18:46;4.85;;;2.58;;
27015;SDS011;14557;0.000;0.000;2024-01-15T13:21:11;4.80;;;2.63;;
27015;SDS011;14557;0.000;0.000;2024-01-15T13:23:37;6.40;;;2.42;;
27015;SDS011;14557;0.000;0.000;2024-01-15T13:26:04;4.30;;;2.65;;
27015;SDS011;14557;0.000;0.000;2024-01-15T13:28:30;2.80;;;2.25;;
27015;SDS011;14557;0.000;0.000;2024-01-15T13:30:56;4.90;;;2.50;;
27015;SDS011;14557;0.000;0.000;2024-01-15T13:33:21;4.78;;;2.28;;
27015;SDS011;14557;0.000;0.000;2024-01-15T13:35:47;6.85;;;3.65;;
27015;SDS011;14557;0.000;0.000;2024-01-15T13:40:40;3.90;;;2.33;;
27015;SDS011;14557;0.000;0.000;2024-01-15T13:43:06;4.88;;;2.50;;
27015;SDS011;14557;0.000;0.000;2024-01-15T13:45:33;3.73;;;2.13;;
27015;SDS011;14557;0.000;0.000;2024-01-15T13:50:26;3.70;;;2.75;;
27015;SDS011;14557;0.000;0.000;2024-01-15T13:52:52;5.63;;;3.30;;
27015;SDS011;14557;0.000;0.000;2024-01-15T13:55:18;3.35;;;2.35;;
27015;SDS011;14557;0.000;0.000;2024-01-15T13:57:44;4.03;;;2.88;;
27015;SDS011;14557;0.000;0.000;2024-01-15T14:00:10;5.10;;;3.20;;
27015;SDS011;14557;0.000;0.000;2024-01-15T14:02:37;5.20;;;2.97;;
27015;SDS011;14557;0.000;0.000;2024-01-15T14:05:03;5.47;;;3.40;;
27015;SDS011;14557;0.000;0.000;2024-01-15T14:07:29;6.90;;;3.10;;
27015;SDS011;14557;0.000;0.000;2024-01-15T14:09:54;4.05;;;2.90;;
27015;SDS011;14557;0.000;0.000;2024-01-15T14:12:20;4.57;;;3.78;;
27015;SDS011;14557;0.000;0.000;2024-01-15T14:14:46;5.75;;;3.30;;
27015;SDS011;14557;0.000;0.000;2024-01-15T14:17:12;5.57;;;2.92;;
27015;SDS011;14557;0.000;0.000;2024-01-15T14:19:38;6.18;;;3.33;;
27015;SDS011;14557;0.000;0.000;2024-01-15T14:22:04;6.60;;;3.05;;
27015;SDS011;14557;0.000;0.000;2024-01-15T14:24:30;4.45;;;3.28;;
27015;SDS011;14557;0.000;0.000;2024-01-15T14:26:55;4.43;;;2.97;;
27015;SDS011;14557;0.000;0.000;2024-01-15T14:29:22;6.80;;;3.45;;
27015;SDS011;14557;0.000;0.000;2024-01-15T14:31:50;4.70;;;3.13;;
27015;SDS011;14557;0.000;0.000;2024-01-15T14:34:16;4.03;;;2.60;;
27015;SDS011;14557;0.000;0.000;2024-01-15T14:36:43;7.00;;;3.47;;
27015;SDS011;14557;0.000;0.000;2024-01-15T14:39:09;7.28;;;3.28;;
27015;SDS011;14557;0.000;0.000;2024-01-15T14:41:35;4.68;;;3.13;;
27015;SDS011;14557;0.000;0.000;2024-01-15T14:44:00;5.40;;;3.20;;
27015;SDS011;14557;0.000;0.000;2024-01-15T14:46:26;7.25;;;3.80;;
27015;SDS011;14557;0.000;0.000;2024-01-15T14:48:52;4.57;;;3.25;;
27015;SDS011;14557;0.000;0.000;2024-01-15T14:51:18;6.18;;;3.50;;
27015;SDS011;14557;0.000;0.000;2024-01-15T14:53:44;5.72;;;3.22;;
27015;SDS011;14557;0.000;0.000;2024-01-15T14:56:10;8.60;;;2.97;;
27015;SDS011;14557;0.000;0.000;2024-01-15T14:58:36;4.72;;;3.08;;
27015;SDS011;14557;0.000;0.000;2024-01-15T15:01:01;4.90;;;2.97;;
27015;SDS011;14557;0.000;0.000;2024-01-15T15:03:28;4.65;;;3.10;;
27015;SDS011;14557;0.000;0.000;2024-01-15T15:05:54;6.88;;;3.53;;
27015;SDS011;14557;0.000;0.000;2024-01-15T15:08:20;6.05;;;3.55;;
27015;SDS011;14557;0.000;0.000;2024-01-15T15:10:46;6.55;;;4.20;;
27015;SDS011;14557;0.000;0.000;2024-01-15T15:13:11;5.65;;;3.60;;
27015;SDS011;14557;0.000;0.000;2024-01-15T15:15:37;5.82;;;3.55;;
27015;SDS011;14557;0.000;0.000;2024-01-15T15:18:03;6.15;;;3.45;;
27015;SDS011;14557;0.000;0.000;2024-01-15T15:20:29;5.72;;;3.38;;
27015;SDS011;14557;0.000;0.000;2024-01-15T15:22:55;3.95;;;2.95;;
27015;SDS011;14557;0.000;0.000;2024-01-15T15:25:21;6.32;;;3.50;;